Date,TemperatureHighF,TemperatureAvgF,TemperatureLowF,DewpointHighF,DewpointAvgF,DewpointLowF,HumidityHigh,HumidityAvg,HumidityLow,PressureMaxIn,PressureMinIn,WindSpeedMaxMPH,WindSpeedAvgMPH,GustSpeedMaxMPH,PrecipitationSumIn
2013-4-1,62.3,51.4,38.3,51.3,40.8,31.4,100,69,43,29.71,29.59,0,-999,0,0.00
2013-4-2,58.5,47.2,38.6,32.2,25.0,15.9,74,44,19,29.87,29.70,0,-999,0,0.00
2013-4-3,61.3,48.5,35.2,30.6,24.1,18.6,65,39,19,29.97,29.84,0,-999,0,0.00
2013-4-4,47.2,38.5,34.9,36.7,29.5,-99.9,98,74,34,29.97,29.66,0,-999,0,0.56
2013-4-5,60.0,47.0,36.8,43.3,38.3,31.5,98,75,34,29.81,29.61,0,-999,0,0.00
2013-4-6,66.0,49.5,32.3,40.8,35.6,30.9,96,63,33,29.94,29.80,0,-999,0,0.00
2013-4-7,69.9,54.3,39.1,45.4,40.5,34.9,87,62,38,29.94,29.82,0,-999,0,0.00
2013-4-8,75.2,59.2,42.4,57.2,47.0,0.0,94,67,41,29.90,29.81,0,-999,0,0.00
2013-4-9,81.1,65.6,47.9,56.5,52.1,0.0,93,64,37,29.96,29.86,0,-999,0,0.00
2013-4-10,83.4,67.7,50.9,57.7,53.3,0.0,92,63,32,29.89,29.73,0,-999,0,0.00
2013-4-11,78.4,65.5,55.4,63.6,54.8,0.0,100,70,41,29.75,29.47,0,-999,0,0.48
2013-4-12,71.5,61.9,52.8,63.6,51.6,36.9,102,73,34,29.63,29.39,0,-999,0,1.69
2013-4-13,69.5,58.2,48.6,39.3,35.0,25.6,67,44,20,29.80,29.60,0,-999,0,0.00
2013-4-14,71.0,56.2,39.9,48.6,41.3,36.5,88,61,33,29.84,29.72,0,-999,0,0.00
2013-4-15,65.6,55.6,51.5,57.7,52.5,-99.9,99,90,74,29.96,29.72,0,-999,0,0.10
2013-4-16,77.2,63.8,52.7,60.8,56.3,52.4,100,78,52,30.04,29.94,0,-999,0,0.00
2013-4-17,70.9,62.6,54.8,64.4,59.0,53.7,101,88,69,30.03,29.90,0,-999,0,0.32
2013-4-18,72.1,64.2,56.2,61.1,58.1,55.6,99,81,58,29.91,29.73,0,-999,0,0.01
2013-4-19,65.8,60.0,44.7,62.9,56.5,35.1,100,88,67,29.74,29.49,0,-999,0,0.68
2013-4-20,60.0,48.2,37.6,36.1,30.2,24.3,76,52,29,30.01,29.66,0,-999,0,0.00
2013-4-21,60.6,48.0,33.2,37.4,33.8,30.2,92,61,36,30.15,30.00,0,-999,0,0.00
2013-4-22,61.7,50.6,43.1,40.3,37.5,33.8,80,62,40,30.13,29.94,0,-999,0,0.00
2013-4-23,70.4,54.0,35.8,46.5,39.8,0.0,102,60,37,30.00,29.83,0,-999,0,0.00
2013-4-24,71.4,57.5,43.1,57.8,49.8,41.5,95,77,51,29.89,29.75,0,-999,0,0.01
2013-4-25,67.6,54.1,42.1,49.5,33.2,0.0,90,52,12,30.06,29.83,0,-999,0,0.00
2013-4-26,68.4,53.1,34.8,44.2,35.5,28.8,85,54,31,30.15,30.03,0,-999,0,0.00
2013-4-27,58.1,52.8,49.9,52.5,48.5,42.2,101,86,64,30.12,29.99,0,-999,0,0.65
2013-4-28,51.0,49.4,47.4,51.9,49.6,-99.9,103,102,100,30.00,29.76,0,-999,0,1.68
2013-4-29,72.0,59.0,50.5,61.5,55.5,51.3,104,89,57,29.82,29.69,0,-999,0,0.08
2013-4-30,72.6,61.9,52.5,59.6,56.3,52.0,101,82,53,29.93,29.75,0,-999,0,0.00